Terminal Aerodrome Forecast
Issued by NWS Tampa Bay Area, FL

Home | Current Version | Previous Version | Text Only | Print | Product List | Glossary On
Versions: 1 2 3 4 5 6 7 8 9 10 11 12 13
091
FTUS42 KTBW 251727
TAFSRQ
TAF
KSRQ 251727Z 2518/2618 28014KT P6SM FEW030 SCT050
     FM260200 31006KT P6SM SKC
     FM260900 25006KT P6SM FEW015=

USA.gov is the U.S. government's official web portal to all federal, state and local government web resources and services.